sensor_id;sensor_type;location;lat;lon;timestamp;P1;durP1;ratioP1;P2;durP2;ratioP2
10090;SDS011;5084;51.386;6.778;2022-07-21T00:00:28;7.00;;;6.43;;
10090;SDS011;5084;51.386;6.778;2022-07-21T00:02:56;6.23;;;5.73;;
10090;SDS011;5084;51.386;6.778;2022-07-21T00:05:23;6.17;;;5.70;;
10090;SDS011;5084;51.386;6.778;2022-07-21T00:07:55;6.63;;;5.97;;
10090;SDS011;5084;51.386;6.778;2022-07-21T00:10:22;6.53;;;6.03;;
10090;SDS011;5084;51.386;6.778;2022-07-21T00:12:49;7.03;;;6.40;;
10090;SDS011;5084;51.386;6.778;2022-07-21T00:15:15;6.00;;;5.60;;
10090;SDS011;5084;51.386;6.778;2022-07-21T00:17:42;6.20;;;5.63;;
10090;SDS011;5084;51.386;6.778;2022-07-21T00:20:08;6.00;;;5.60;;
10090;SDS011;5084;51.386;6.778;2022-07-21T00:22:35;5.77;;;5.37;;
10090;SDS011;5084;51.386;6.778;2022-07-21T00:25:02;6.13;;;5.63;;
10090;SDS011;5084;51.386;6.778;2022-07-21T00:27:28;6.17;;;5.67;;
10090;SDS011;5084;51.386;6.778;2022-07-21T00:29:54;6.07;;;5.57;;
10090;SDS011;5084;51.386;6.778;2022-07-21T00:32:21;6.57;;;6.07;;
10090;SDS011;5084;51.386;6.778;2022-07-21T00:34:47;6.10;;;5.60;;
10090;SDS011;5084;51.386;6.778;2022-07-21T00:37:13;6.50;;;5.90;;
10090;SDS011;5084;51.386;6.778;2022-07-21T00:39:42;6.00;;;5.50;;
10090;SDS011;5084;51.386;6.778;2022-07-21T00:42:08;6.23;;;5.73;;
10090;SDS011;5084;51.386;6.778;2022-07-21T00:44:34;6.40;;;5.83;;
10090;SDS011;5084;51.386;6.778;2022-07-21T00:47:00;6.10;;;5.50;;
10090;SDS011;5084;51.386;6.778;2022-07-21T00:49:26;7.30;;;5.67;;
10090;SDS011;5084;51.386;6.778;2022-07-21T00:51:52;5.83;;;5.43;;
10090;SDS011;5084;51.386;6.778;2022-07-21T00:54:18;5.50;;;5.10;;
10090;SDS011;5084;51.386;6.778;2022-07-21T00:56:45;6.23;;;5.63;;
10090;SDS011;5084;51.386;6.778;2022-07-21T00:59:12;5.77;;;5.27;;
10090;SDS011;5084;51.386;6.778;2022-07-21T01:01:38;5.87;;;5.37;;
10090;SDS011;5084;51.386;6.778;2022-07-21T01:04:04;6.80;;;6.20;;
10090;SDS011;5084;51.386;6.778;2022-07-21T01:06:30;6.03;;;5.43;;
10090;SDS011;5084;51.386;6.778;2022-07-21T01:08:56;6.47;;;5.87;;
10090;SDS011;5084;51.386;6.778;2022-07-21T01:11:24;5.90;;;5.40;;
10090;SDS011;5084;51.386;6.778;2022-07-21T01:13:50;6.33;;;5.73;;
10090;SDS011;5084;51.386;6.778;2022-07-21T01:16:17;6.97;;;6.00;;
10090;SDS011;5084;51.386;6.778;2022-07-21T01:18:43;6.47;;;5.33;;
10090;SDS011;5084;51.386;6.778;2022-07-21T01:21:33;6.17;;;5.63;;
10090;SDS011;5084;51.386;6.778;2022-07-21T01:23:58;6.70;;;6.10;;
10090;SDS011;5084;51.386;6.778;2022-07-21T01:26:25;7.80;;;5.80;;
10090;SDS011;5084;51.386;6.778;2022-07-21T01:28:51;5.23;;;4.83;;
10090;SDS011;5084;51.386;6.778;2022-07-21T01:31:17;5.13;;;4.70;;
10090;SDS011;5084;51.386;6.778;2022-07-21T01:33:43;6.40;;;5.80;;
10090;SDS011;5084;51.386;6.778;2022-07-21T01:36:10;5.90;;;5.37;;
10090;SDS011;5084;51.386;6.778;2022-07-21T01:38:36;6.20;;;5.60;;
10090;SDS011;5084;51.386;6.778;2022-07-21T01:41:21;6.27;;;5.30;;
10090;SDS011;5084;51.386;6.778;2022-07-21T01:43:58;6.37;;;5.73;;
10090;SDS011;5084;51.386;6.778;2022-07-21T01:46:25;5.80;;;5.40;;
10090;SDS011;5084;51.386;6.778;2022-07-21T01:48:51;6.37;;;5.77;;
10090;SDS011;5084;51.386;6.778;2022-07-21T01:51:18;6.10;;;5.50;;
10090;SDS011;5084;51.386;6.778;2022-07-21T01:53:44;5.80;;;5.40;;
10090;SDS011;5084;51.386;6.778;2022-07-21T01:56:10;6.67;;;5.43;;
10090;SDS011;5084;51.386;6.778;2022-07-21T01:58:36;6.20;;;5.70;;
10090;SDS011;5084;51.386;6.778;2022-07-21T02:01:03;5.87;;;5.37;;
10090;SDS011;5084;51.386;6.778;2022-07-21T02:03:29;6.30;;;5.70;;
10090;SDS011;5084;51.386;6.778;2022-07-21T02:06:04;6.00;;;5.50;;
10090;SDS011;5084;51.386;6.778;2022-07-21T02:08:32;5.97;;;5.37;;
10090;SDS011;5084;51.386;6.778;2022-07-21T02:10:58;6.77;;;6.03;;
10090;SDS011;5084;51.386;6.778;2022-07-21T02:13:24;5.73;;;5.20;;
10090;SDS011;5084;51.386;6.778;2022-07-21T02:15:51;6.23;;;5.73;;
10090;SDS011;5084;51.386;6.778;2022-07-21T02:18:17;6.60;;;6.00;;
10090;SDS011;5084;51.386;6.778;2022-07-21T02:20:43;7.03;;;6.33;;
10090;SDS011;5084;51.386;6.778;2022-07-21T02:23:13;6.87;;;5.97;;
10090;SDS011;5084;51.386;6.778;2022-07-21T02:25:39;5.93;;;5.43;;
10090;SDS011;5084;51.386;6.778;2022-07-21T02:28:05;6.60;;;6.00;;
10090;SDS011;5084;51.386;6.778;2022-07-21T02:30:31;6.30;;;5.70;;
10090;SDS011;5084;51.386;6.778;2022-07-21T02:32:57;6.13;;;5.40;;
10090;SDS011;5084;51.386;6.778;2022-07-21T02:35:23;5.63;;;5.07;;
10090;SDS011;5084;51.386;6.778;2022-07-21T02:37:50;6.60;;;6.07;;
10090;SDS011;5084;51.386;6.778;2022-07-21T02:40:16;6.72;;;6.13;;
10090;SDS011;5084;51.386;6.778;2022-07-21T02:42:42;6.50;;;5.90;;
10090;SDS011;5084;51.386;6.778;2022-07-21T02:45:08;6.47;;;5.87;;
10090;SDS011;5084;51.386;6.778;2022-07-21T02:47:54;5.63;;;5.13;;
10090;SDS011;5084;51.386;6.778;2022-07-21T02:50:21;6.70;;;6.10;;
10090;SDS011;5084;51.386;6.778;2022-07-21T02:52:47;6.20;;;5.60;;
10090;SDS011;5084;51.386;6.778;2022-07-21T02:55:13;6.30;;;5.80;;
10090;SDS011;5084;51.386;6.778;2022-07-21T02:57:40;6.53;;;6.03;;
10090;SDS011;5084;51.386;6.778;2022-07-21T03:00:12;6.47;;;5.97;;
10090;SDS011;5084;51.386;6.778;2022-07-21T03:02:38;6.07;;;5.57;;
10090;SDS011;5084;51.386;6.778;2022-07-21T03:05:04;6.30;;;5.80;;
10090;SDS011;5084;51.386;6.778;2022-07-21T03:07:30;5.83;;;5.27;;
10090;SDS011;5084;51.386;6.778;2022-07-21T03:09:57;6.70;;;6.10;;
10090;SDS011;5084;51.386;6.778;2022-07-21T03:12:23;6.20;;;5.70;;
10090;SDS011;5084;51.386;6.778;2022-07-21T03:14:49;6.47;;;5.87;;
10090;SDS011;5084;51.386;6.778;2022-07-21T03:17:15;7.20;;;6.60;;
10090;SDS011;5084;51.386;6.778;2022-07-21T03:19:41;6.53;;;6.03;;
10090;SDS011;5084;51.386;6.778;2022-07-21T03:22:07;5.97;;;5.47;;
10090;SDS011;5084;51.386;6.778;2022-07-21T03:24:33;6.20;;;5.70;;
10090;SDS011;5084;51.386;6.778;2022-07-21T03:26:59;5.73;;;5.30;;
10090;SDS011;5084;51.386;6.778;2022-07-21T03:29:31;5.90;;;5.40;;
10090;SDS011;5084;51.386;6.778;2022-07-21T03:31:57;7.73;;;7.13;;
10090;SDS011;5084;51.386;6.778;2022-07-21T03:34:23;6.00;;;5.50;;
10090;SDS011;5084;51.386;6.778;2022-07-21T03:36:49;6.07;;;5.57;;
10090;SDS011;5084;51.386;6.778;2022-07-21T03:39:16;6.17;;;5.57;;
10090;SDS011;5084;51.386;6.778;2022-07-21T03:41:42;5.67;;;5.10;;
10090;SDS011;5084;51.386;6.778;2022-07-21T03:44:08;6.33;;;5.83;;
10090;SDS011;5084;51.386;6.778;2022-07-21T03:46:40;5.70;;;5.30;;
10090;SDS011;5084;51.386;6.778;2022-07-21T03:49:06;5.93;;;5.50;;
10090;SDS011;5084;51.386;6.778;2022-07-21T03:51:33;6.57;;;5.97;;
10090;SDS011;5084;51.386;6.778;2022-07-21T03:54:02;6.20;;;5.70;;
10090;SDS011;5084;51.386;6.778;2022-07-21T03:56:28;6.27;;;5.77;;
10090;SDS011;5084;51.386;6.778;2022-07-21T03:58:54;5.83;;;5.40;;
10090;SDS011;5084;51.386;6.778;2022-07-21T04:01:20;9.27;;;8.67;;
10090;SDS011;5084;51.386;6.778;2022-07-21T04:03:46;5.90;;;4.53;;
10090;SDS011;5084;51.386;6.778;2022-07-21T04:06:13;5.73;;;5.27;;
10090;SDS011;5084;51.386;6.778;2022-07-21T04:08:39;4.90;;;4.60;;
10090;SDS011;5084;51.386;6.778;2022-07-21T04:11:05;5.93;;;5.43;;
10090;SDS011;5084;51.386;6.778;2022-07-21T04:13:34;5.67;;;5.17;;
10090;SDS011;5084;51.386;6.778;2022-07-21T04:16:00;6.50;;;5.90;;
10090;SDS011;5084;51.386;6.778;2022-07-21T04:18:26;6.10;;;5.60;;
10090;SDS011;5084;51.386;6.778;2022-07-21T04:20:52;5.50;;;5.00;;
10090;SDS011;5084;51.386;6.778;2022-07-21T04:23:18;8.63;;;8.03;;
10090;SDS011;5084;51.386;6.778;2022-07-21T04:25:44;5.87;;;5.37;;
10090;SDS011;5084;51.386;6.778;2022-07-21T04:28:11;5.67;;;5.17;;
10090;SDS011;5084;51.386;6.778;2022-07-21T04:30:37;5.80;;;5.30;;
10090;SDS011;5084;51.386;6.778;2022-07-21T04:33:03;5.30;;;4.83;;
10090;SDS011;5084;51.386;6.778;2022-07-21T04:35:29;6.07;;;5.17;;
10090;SDS011;5084;51.386;6.778;2022-07-21T04:37:55;6.37;;;5.77;;
10090;SDS011;5084;51.386;6.778;2022-07-21T04:40:21;6.27;;;4.90;;
10090;SDS011;5084;51.386;6.778;2022-07-21T04:42:47;5.60;;;5.10;;
10090;SDS011;5084;51.386;6.778;2022-07-21T04:45:14;4.90;;;4.60;;
10090;SDS011;5084;51.386;6.778;2022-07-21T04:47:50;5.90;;;5.40;;
10090;SDS011;5084;51.386;6.778;2022-07-21T04:50:17;6.37;;;5.87;;
10090;SDS011;5084;51.386;6.778;2022-07-21T04:52:44;5.97;;;5.37;;
10090;SDS011;5084;51.386;6.778;2022-07-21T04:55:10;4.80;;;4.50;;
10090;SDS011;5084;51.386;6.778;2022-07-21T04:57:37;6.90;;;5.53;;
10090;SDS011;5084;51.386;6.778;2022-07-21T05:00:04;6.50;;;6.00;;
10090;SDS011;5084;51.386;6.778;2022-07-21T05:02:31;5.73;;;5.23;;
10090;SDS011;5084;51.386;6.778;2022-07-21T05:04:57;6.50;;;5.63;;
10090;SDS011;5084;51.386;6.778;2022-07-21T05:07:23;5.43;;;4.93;;
10090;SDS011;5084;51.386;6.778;2022-07-21T05:09:49;6.30;;;5.70;;
10090;SDS011;5084;51.386;6.778;2022-07-21T05:12:21;5.47;;;5.00;;
10090;SDS011;5084;51.386;6.778;2022-07-21T05:14:47;5.93;;;5.33;;
10090;SDS011;5084;51.386;6.778;2022-07-21T05:17:13;6.20;;;5.70;;
10090;SDS011;5084;51.386;6.778;2022-07-21T05:19:40;5.80;;;5.30;;
10090;SDS011;5084;51.386;6.778;2022-07-21T05:22:07;5.33;;;4.93;;
10090;SDS011;5084;51.386;6.778;2022-07-21T05:24:33;6.27;;;5.67;;
10090;SDS011;5084;51.386;6.778;2022-07-21T05:26:59;5.63;;;5.13;;
10090;SDS011;5084;51.386;6.778;2022-07-21T05:29:25;6.27;;;5.67;;
10090;SDS011;5084;51.386;6.778;2022-07-21T05:31:51;6.00;;;5.50;;
10090;SDS011;5084;51.386;6.778;2022-07-21T05:34:20;6.43;;;5.83;;
10090;SDS011;5084;51.386;6.778;2022-07-21T05:36:46;6.63;;;5.90;;
10090;SDS011;5084;51.386;6.778;2022-07-21T05:39:15;5.70;;;5.00;;
10090;SDS011;5084;51.386;6.778;2022-07-21T05:41:41;5.97;;;5.47;;
10090;SDS011;5084;51.386;6.778;2022-07-21T05:44:07;5.90;;;5.40;;
10090;SDS011;5084;51.386;6.778;2022-07-21T05:46:33;6.37;;;5.30;;
10090;SDS011;5084;51.386;6.778;2022-07-21T05:49:02;5.63;;;5.13;;
10090;SDS011;5084;51.386;6.778;2022-07-21T05:51:28;8.27;;;7.23;;
10090;SDS011;5084;51.386;6.778;2022-07-21T05:53:54;9.20;;;8.03;;
10090;SDS011;5084;51.386;6.778;2022-07-21T05:56:20;8.87;;;8.07;;
10090;SDS011;5084;51.386;6.778;2022-07-21T05:58:46;10.93;;;9.83;;
10090;SDS011;5084;51.386;6.778;2022-07-21T06:01:13;9.93;;;9.03;;
10090;SDS011;5084;51.386;6.778;2022-07-21T06:06:08;9.57;;;8.43;;
10090;SDS011;5084;51.386;6.778;2022-07-21T06:08:34;9.83;;;8.93;;
10090;SDS011;5084;51.386;6.778;2022-07-21T06:11:02;9.53;;;8.73;;
10090;SDS011;5084;51.386;6.778;2022-07-21T06:13:28;10.33;;;9.33;;
10090;SDS011;5084;51.386;6.778;2022-07-21T06:15:54;10.00;;;8.83;;
10090;SDS011;5084;51.386;6.778;2022-07-21T06:18:20;10.33;;;9.37;;
10090;SDS011;5084;51.386;6.778;2022-07-21T06:20:46;10.13;;;9.13;;
10090;SDS011;5084;51.386;6.778;2022-07-21T06:23:12;9.67;;;8.67;;
10090;SDS011;5084;51.386;6.778;2022-07-21T06:25:39;9.23;;;7.80;;
10090;SDS011;5084;51.386;6.778;2022-07-21T06:28:08;11.17;;;9.00;;
10090;SDS011;5084;51.386;6.778;2022-07-21T06:30:34;8.67;;;7.87;;
10090;SDS011;5084;51.386;6.778;2022-07-21T06:33:00;14.27;;;8.20;;
10090;SDS011;5084;51.386;6.778;2022-07-21T06:35:26;8.80;;;7.90;;
10090;SDS011;5084;51.386;6.778;2022-07-21T06:37:52;8.47;;;7.67;;
10090;SDS011;5084;51.386;6.778;2022-07-21T06:40:19;9.03;;;6.27;;
10090;SDS011;5084;51.386;6.778;2022-07-21T06:42:46;7.90;;;6.63;;
10090;SDS011;5084;51.386;6.778;2022-07-21T06:45:12;9.67;;;7.70;;
10090;SDS011;5084;51.386;6.778;2022-07-21T06:47:41;7.53;;;6.53;;
10090;SDS011;5084;51.386;6.778;2022-07-21T06:50:10;7.50;;;6.57;;
10090;SDS011;5084;51.386;6.778;2022-07-21T06:52:37;7.03;;;6.17;;
10090;SDS011;5084;51.386;6.778;2022-07-21T06:55:04;6.10;;;5.60;;
10090;SDS011;5084;51.386;6.778;2022-07-21T06:57:30;9.37;;;6.50;;
10090;SDS011;5084;51.386;6.778;2022-07-21T06:59:56;6.27;;;5.70;;
10090;SDS011;5084;51.386;6.778;2022-07-21T07:02:25;6.57;;;5.17;;
10090;SDS011;5084;51.386;6.778;2022-07-21T07:04:52;6.87;;;6.20;;
10090;SDS011;5084;51.386;6.778;2022-07-21T07:07:20;6.93;;;6.23;;
10090;SDS011;5084;51.386;6.778;2022-07-21T07:09:49;9.33;;;6.40;;
10090;SDS011;5084;51.386;6.778;2022-07-21T07:12:15;7.00;;;6.40;;
10090;SDS011;5084;51.386;6.778;2022-07-21T07:14:41;6.80;;;6.20;;
10090;SDS011;5084;51.386;6.778;2022-07-21T07:17:07;7.30;;;6.40;;
10090;SDS011;5084;51.386;6.778;2022-07-21T07:19:38;7.30;;;6.30;;
10090;SDS011;5084;51.386;6.778;2022-07-21T07:22:04;7.17;;;6.47;;
10090;SDS011;5084;51.386;6.778;2022-07-21T07:24:30;6.80;;;5.90;;
10090;SDS011;5084;51.386;6.778;2022-07-21T07:26:56;6.93;;;6.23;;
10090;SDS011;5084;51.386;6.778;2022-07-21T07:29:22;5.53;;;5.10;;
10090;SDS011;5084;51.386;6.778;2022-07-21T07:31:48;8.27;;;6.13;;
10090;SDS011;5084;51.386;6.778;2022-07-21T07:34:18;7.27;;;5.63;;
10090;SDS011;5084;51.386;6.778;2022-07-21T07:36:47;6.33;;;5.73;;
10090;SDS011;5084;51.386;6.778;2022-07-21T07:39:13;6.63;;;5.67;;
10090;SDS011;5084;51.386;6.778;2022-07-21T07:41:40;7.67;;;6.00;;
10090;SDS011;5084;51.386;6.778;2022-07-21T07:44:07;7.03;;;5.10;;
10090;SDS011;5084;51.386;6.778;2022-07-21T07:46:36;7.27;;;5.23;;
10090;SDS011;5084;51.386;6.778;2022-07-21T07:49:02;5.93;;;5.33;;
10090;SDS011;5084;51.386;6.778;2022-07-21T07:51:28;6.00;;;5.23;;
10090;SDS011;5084;51.386;6.778;2022-07-21T07:53:54;5.90;;;5.30;;
10090;SDS011;5084;51.386;6.778;2022-07-21T07:56:20;5.83;;;5.23;;
10090;SDS011;5084;51.386;6.778;2022-07-21T07:58:46;7.10;;;6.43;;
10090;SDS011;5084;51.386;6.778;2022-07-21T08:01:12;5.67;;;5.17;;
10090;SDS011;5084;51.386;6.778;2022-07-21T08:03:41;5.40;;;4.90;;
10090;SDS011;5084;51.386;6.778;2022-07-21T08:06:07;5.93;;;5.03;;
10090;SDS011;5084;51.386;6.778;2022-07-21T08:08:33;5.40;;;4.90;;
10090;SDS011;5084;51.386;6.778;2022-07-21T08:10:59;5.63;;;5.13;;
10090;SDS011;5084;51.386;6.778;2022-07-21T08:13:26;5.90;;;4.80;;
10090;SDS011;5084;51.386;6.778;2022-07-21T08:15:52;4.93;;;4.43;;
10090;SDS011;5084;51.386;6.778;2022-07-21T08:18:18;5.63;;;4.70;;
10090;SDS011;5084;51.386;6.778;2022-07-21T08:20:45;5.47;;;4.80;;
10090;SDS011;5084;51.386;6.778;2022-07-21T08:23:12;6.37;;;4.90;;
10090;SDS011;5084;51.386;6.778;2022-07-21T08:25:39;6.43;;;5.17;;
10090;SDS011;5084;51.386;6.778;2022-07-21T08:28:05;8.63;;;5.10;;
10090;SDS011;5084;51.386;6.778;2022-07-21T08:30:31;7.10;;;5.67;;
10090;SDS011;5084;51.386;6.778;2022-07-21T08:32:58;7.10;;;5.40;;
10090;SDS011;5084;51.386;6.778;2022-07-21T08:35:25;6.23;;;5.63;;
10090;SDS011;5084;51.386;6.778;2022-07-21T08:38:00;7.40;;;6.27;;
10090;SDS011;5084;51.386;6.778;2022-07-21T08:40:37;5.20;;;4.77;;
10090;SDS011;5084;51.386;6.778;2022-07-21T08:43:04;7.33;;;5.60;;
10090;SDS011;5084;51.386;6.778;2022-07-21T08:45:31;7.30;;;5.57;;
10090;SDS011;5084;51.386;6.778;2022-07-21T08:47:58;5.80;;;5.23;;
10090;SDS011;5084;51.386;6.778;2022-07-21T08:50:27;6.90;;;5.53;;
10090;SDS011;5084;51.386;6.778;2022-07-21T08:52:54;7.33;;;6.00;;
10090;SDS011;5084;51.386;6.778;2022-07-21T08:55:20;7.00;;;6.30;;
10090;SDS011;5084;51.386;6.778;2022-07-21T08:57:46;7.70;;;6.00;;
10090;SDS011;5084;51.386;6.778;2022-07-21T09:00:12;6.57;;;5.90;;
10090;SDS011;5084;51.386;6.778;2022-07-21T09:02:39;7.70;;;6.17;;
10090;SDS011;5084;51.386;6.778;2022-07-21T09:05:06;8.00;;;6.00;;
10090;SDS011;5084;51.386;6.778;2022-07-21T09:07:52;6.43;;;5.83;;
10090;SDS011;5084;51.386;6.778;2022-07-21T09:10:26;6.37;;;5.67;;
10090;SDS011;5084;51.386;6.778;2022-07-21T09:12:56;7.00;;;5.53;;
10090;SDS011;5084;51.386;6.778;2022-07-21T09:15:23;8.23;;;6.30;;
10090;SDS011;5084;51.386;6.778;2022-07-21T09:20:50;6.40;;;5.70;;
10090;SDS011;5084;51.386;6.778;2022-07-21T09:23:17;6.63;;;5.90;;
10090;SDS011;5084;51.386;6.778;2022-07-21T09:25:47;8.97;;;6.47;;
10090;SDS011;5084;51.386;6.778;2022-07-21T09:30:50;9.83;;;7.07;;
10090;SDS011;5084;51.386;6.778;2022-07-21T09:33:21;7.40;;;6.37;;
10090;SDS011;5084;51.386;6.778;2022-07-21T09:38:49;7.10;;;6.40;;
10090;SDS011;5084;51.386;6.778;2022-07-21T09:41:19;7.07;;;6.43;;
10090;SDS011;5084;51.386;6.778;2022-07-21T09:43:47;7.73;;;7.00;;
10090;SDS011;5084;51.386;6.778;2022-07-21T09:46:17;6.80;;;5.93;;
10090;SDS011;5084;51.386;6.778;2022-07-21T09:48:47;6.63;;;6.03;;
10090;SDS011;5084;51.386;6.778;2022-07-21T09:51:33;7.67;;;6.87;;
10090;SDS011;5084;51.386;6.778;2022-07-21T09:54:01;9.83;;;6.80;;
10090;SDS011;5084;51.386;6.778;2022-07-21T09:56:29;10.47;;;7.17;;
10090;SDS011;5084;51.386;6.778;2022-07-21T09:58:56;9.13;;;6.80;;
10090;SDS011;5084;51.386;6.778;2022-07-21T10:01:23;7.00;;;6.33;;
10090;SDS011;5084;51.386;6.778;2022-07-21T10:03:50;8.67;;;6.60;;
10090;SDS011;5084;51.386;6.778;2022-07-21T10:06:18;9.20;;;6.90;;
10090;SDS011;5084;51.386;6.778;2022-07-21T10:08:44;10.77;;;6.57;;
10090;SDS011;5084;51.386;6.778;2022-07-21T10:11:13;7.73;;;7.03;;
10090;SDS011;5084;51.386;6.778;2022-07-21T10:13:39;10.30;;;7.00;;
10090;SDS011;5084;51.386;6.778;2022-07-21T10:16:08;7.60;;;6.80;;
10090;SDS011;5084;51.386;6.778;2022-07-21T10:18:44;8.53;;;7.60;;
10090;SDS011;5084;51.386;6.778;2022-07-21T10:23:52;8.60;;;7.43;;
10090;SDS011;5084;51.386;6.778;2022-07-21T10:26:19;9.57;;;7.80;;
10090;SDS011;5084;51.386;6.778;2022-07-21T10:28:45;12.67;;;8.87;;
10090;SDS011;5084;51.386;6.778;2022-07-21T10:31:16;11.20;;;8.53;;
10090;SDS011;5084;51.386;6.778;2022-07-21T10:44:28;10.03;;;8.63;;
10090;SDS011;5084;51.386;6.778;2022-07-21T10:47:12;9.83;;;8.93;;
10090;SDS011;5084;51.386;6.778;2022-07-21T10:49:43;11.27;;;9.83;;
10090;SDS011;5084;51.386;6.778;2022-07-21T10:57:42;10.90;;;9.57;;
10090;SDS011;5084;51.386;6.778;2022-07-21T11:00:25;10.23;;;8.60;;
10090;SDS011;5084;51.386;6.778;2022-07-21T11:02:54;10.23;;;9.13;;
10090;SDS011;5084;51.386;6.778;2022-07-21T11:05:20;10.23;;;9.23;;
10090;SDS011;5084;51.386;6.778;2022-07-21T11:10:31;11.13;;;8.20;;
10090;SDS011;5084;51.386;6.778;2022-07-21T11:12:57;8.37;;;7.57;;
10090;SDS011;5084;51.386;6.778;2022-07-21T11:18:10;8.03;;;7.27;;
10090;SDS011;5084;51.386;6.778;2022-07-21T11:20:36;7.80;;;6.97;;
10090;SDS011;5084;51.386;6.778;2022-07-21T11:23:02;8.43;;;7.07;;
10090;SDS011;5084;51.386;6.778;2022-07-21T11:25:29;7.67;;;6.97;;
10090;SDS011;5084;51.386;6.778;2022-07-21T11:27:55;7.77;;;6.97;;
10090;SDS011;5084;51.386;6.778;2022-07-21T11:30:21;6.87;;;6.20;;
10090;SDS011;5084;51.386;6.778;2022-07-21T11:32:47;7.40;;;6.70;;
10090;SDS011;5084;51.386;6.778;2022-07-21T11:35:14;7.37;;;6.70;;
10090;SDS011;5084;51.386;6.778;2022-07-21T11:37:41;7.60;;;6.90;;
10090;SDS011;5084;51.386;6.778;2022-07-21T11:40:09;7.17;;;6.53;;
10090;SDS011;5084;51.386;6.778;2022-07-21T11:42:37;7.03;;;6.33;;
10090;SDS011;5084;51.386;6.778;2022-07-21T11:45:04;8.07;;;7.37;;
10090;SDS011;5084;51.386;6.778;2022-07-21T11:47:30;7.83;;;7.13;;
10090;SDS011;5084;51.386;6.778;2022-07-21T11:49:58;8.23;;;7.53;;
10090;SDS011;5084;51.386;6.778;2022-07-21T11:52:28;8.80;;;7.90;;
10090;SDS011;5084;51.386;6.778;2022-07-21T11:54:55;9.40;;;7.43;;
10090;SDS011;5084;51.386;6.778;2022-07-21T11:57:23;8.23;;;7.43;;
10090;SDS011;5084;51.386;6.778;2022-07-21T11:59:49;10.20;;;9.30;;
10090;SDS011;5084;51.386;6.778;2022-07-21T12:02:19;8.10;;;7.50;;
10090;SDS011;5084;51.386;6.778;2022-07-21T12:05:05;8.97;;;8.17;;
10090;SDS011;5084;51.386;6.778;2022-07-21T12:07:37;8.47;;;7.73;;
10090;SDS011;5084;51.386;6.778;2022-07-21T12:10:08;9.57;;;8.67;;
10090;SDS011;5084;51.386;6.778;2022-07-21T12:12:36;8.50;;;7.67;;
10090;SDS011;5084;51.386;6.778;2022-07-21T12:15:36;9.07;;;7.73;;
10090;SDS011;5084;51.386;6.778;2022-07-21T12:17:57;9.13;;;7.30;;
10090;SDS011;5084;51.386;6.778;2022-07-21T12:20:31;8.90;;;7.50;;
10090;SDS011;5084;51.386;6.778;2022-07-21T12:22:58;8.47;;;7.77;;
10090;SDS011;5084;51.386;6.778;2022-07-21T12:25:34;7.97;;;7.17;;
10090;SDS011;5084;51.386;6.778;2022-07-21T12:28:01;7.07;;;6.47;;
10090;SDS011;5084;51.386;6.778;2022-07-21T12:30:35;7.10;;;6.40;;
10090;SDS011;5084;51.386;6.778;2022-07-21T12:33:03;6.90;;;6.30;;
10090;SDS011;5084;51.386;6.778;2022-07-21T12:35:30;7.20;;;6.60;;
10090;SDS011;5084;51.386;6.778;2022-07-21T12:37:58;5.97;;;5.47;;
10090;SDS011;5084;51.386;6.778;2022-07-21T12:40:25;6.43;;;5.90;;
10090;SDS011;5084;51.386;6.778;2022-07-21T12:43:02;5.33;;;4.73;;
10090;SDS011;5084;51.386;6.778;2022-07-21T12:45:28;5.90;;;5.40;;
10090;SDS011;5084;51.386;6.778;2022-07-21T12:48:08;5.47;;;5.00;;
10090;SDS011;5084;51.386;6.778;2022-07-21T12:50:34;5.50;;;5.00;;
10090;SDS011;5084;51.386;6.778;2022-07-21T12:53:03;4.60;;;4.20;;
10090;SDS011;5084;51.386;6.778;2022-07-21T12:55:29;4.83;;;4.43;;
10090;SDS011;5084;51.386;6.778;2022-07-21T12:57:55;4.40;;;4.00;;
10090;SDS011;5084;51.386;6.778;2022-07-21T13:00:22;4.87;;;4.47;;
10090;SDS011;5084;51.386;6.778;2022-07-21T13:02:50;3.70;;;3.50;;
10090;SDS011;5084;51.386;6.778;2022-07-21T13:05:23;5.33;;;4.83;;
10090;SDS011;5084;51.386;6.778;2022-07-21T13:07:49;6.17;;;5.57;;
10090;SDS011;5084;51.386;6.778;2022-07-21T13:10:16;6.60;;;5.90;;
10090;SDS011;5084;51.386;6.778;2022-07-21T13:12:46;7.47;;;6.77;;
10090;SDS011;5084;51.386;6.778;2022-07-21T13:15:13;6.17;;;5.67;;
10090;SDS011;5084;51.386;6.778;2022-07-21T13:17:39;6.80;;;6.20;;
10090;SDS011;5084;51.386;6.778;2022-07-21T13:20:06;6.03;;;5.43;;
10090;SDS011;5084;51.386;6.778;2022-07-21T13:22:32;5.43;;;4.93;;
10090;SDS011;5084;51.386;6.778;2022-07-21T13:24:58;5.90;;;4.83;;
10090;SDS011;5084;51.386;6.778;2022-07-21T13:27:24;6.43;;;5.60;;
10090;SDS011;5084;51.386;6.778;2022-07-21T13:29:51;5.97;;;5.37;;
10090;SDS011;5084;51.386;6.778;2022-07-21T13:32:17;6.40;;;5.80;;
10090;SDS011;5084;51.386;6.778;2022-07-21T13:34:43;7.63;;;6.77;;
10090;SDS011;5084;51.386;6.778;2022-07-21T13:37:09;8.53;;;6.80;;
10090;SDS011;5084;51.386;6.778;2022-07-21T13:39:37;7.63;;;6.93;;
10090;SDS011;5084;51.386;6.778;2022-07-21T13:42:04;7.97;;;7.17;;
10090;SDS011;5084;51.386;6.778;2022-07-21T13:44:30;8.77;;;7.83;;
10090;SDS011;5084;51.386;6.778;2022-07-21T13:46:58;7.50;;;6.83;;
10090;SDS011;5084;51.386;6.778;2022-07-21T13:49:24;8.13;;;7.30;;
10090;SDS011;5084;51.386;6.778;2022-07-21T13:51:51;8.87;;;8.03;;
10090;SDS011;5084;51.386;6.778;2022-07-21T13:54:20;9.77;;;6.93;;
10090;SDS011;5084;51.386;6.778;2022-07-21T13:56:47;7.97;;;7.30;;
10090;SDS011;5084;51.386;6.778;2022-07-21T13:59:16;10.70;;;9.07;;
10090;SDS011;5084;51.386;6.778;2022-07-21T14:01:42;10.13;;;9.13;;
10090;SDS011;5084;51.386;6.778;2022-07-21T14:04:08;10.83;;;9.73;;
10090;SDS011;5084;51.386;6.778;2022-07-21T14:06:35;10.40;;;9.30;;
10090;SDS011;5084;51.386;6.778;2022-07-21T14:09:01;9.93;;;8.97;;
10090;SDS011;5084;51.386;6.778;2022-07-21T14:11:28;10.23;;;8.67;;
10090;SDS011;5084;51.386;6.778;2022-07-21T14:13:54;9.03;;;8.13;;
10090;SDS011;5084;51.386;6.778;2022-07-21T14:16:21;9.67;;;8.23;;
10090;SDS011;5084;51.386;6.778;2022-07-21T14:18:47;9.70;;;7.37;;
10090;SDS011;5084;51.386;6.778;2022-07-21T14:21:20;11.40;;;10.47;;
10090;SDS011;5084;51.386;6.778;2022-07-21T14:23:46;10.27;;;9.37;;
10090;SDS011;5084;51.386;6.778;2022-07-21T14:26:12;8.37;;;7.63;;
10090;SDS011;5084;51.386;6.778;2022-07-21T14:28:39;9.87;;;8.90;;
10090;SDS011;5084;51.386;6.778;2022-07-21T14:31:05;7.70;;;6.97;;
10090;SDS011;5084;51.386;6.778;2022-07-21T14:33:35;8.03;;;7.40;;
10090;SDS011;5084;51.386;6.778;2022-07-21T14:36:01;7.53;;;6.83;;
10090;SDS011;5084;51.386;6.778;2022-07-21T14:38:28;8.00;;;7.40;;
10090;SDS011;5084;51.386;6.778;2022-07-21T14:40:54;7.40;;;6.77;;
10090;SDS011;5084;51.386;6.778;2022-07-21T14:43:20;5.40;;;4.90;;
10090;SDS011;5084;51.386;6.778;2022-07-21T14:45:46;6.23;;;5.63;;
10090;SDS011;5084;51.386;6.778;2022-07-21T14:48:12;5.83;;;5.33;;
10090;SDS011;5084;51.386;6.778;2022-07-21T14:50:38;5.80;;;5.23;;
10090;SDS011;5084;51.386;6.778;2022-07-21T14:53:05;5.83;;;5.40;;
10090;SDS011;5084;51.386;6.778;2022-07-21T14:55:31;5.37;;;4.97;;
10090;SDS011;5084;51.386;6.778;2022-07-21T14:57:57;4.53;;;4.13;;
10090;SDS011;5084;51.386;6.778;2022-07-21T15:00:24;4.30;;;3.90;;
10090;SDS011;5084;51.386;6.778;2022-07-21T15:02:51;4.23;;;3.83;;
10090;SDS011;5084;51.386;6.778;2022-07-21T15:05:18;3.70;;;3.40;;
10090;SDS011;5084;51.386;6.778;2022-07-21T15:07:44;5.03;;;3.97;;
10090;SDS011;5084;51.386;6.778;2022-07-21T15:10:13;4.17;;;3.77;;
10090;SDS011;5084;51.386;6.778;2022-07-21T15:12:39;3.97;;;3.67;;
10090;SDS011;5084;51.386;6.778;2022-07-21T15:15:05;4.03;;;3.73;;
10090;SDS011;5084;51.386;6.778;2022-07-21T15:17:35;3.80;;;3.60;;
10090;SDS011;5084;51.386;6.778;2022-07-21T15:20:02;3.97;;;3.67;;
10090;SDS011;5084;51.386;6.778;2022-07-21T15:22:28;4.00;;;3.70;;
10090;SDS011;5084;51.386;6.778;2022-07-21T15:24:58;3.47;;;3.17;;
10090;SDS011;5084;51.386;6.778;2022-07-21T15:27:24;3.30;;;3.10;;
10090;SDS011;5084;51.386;6.778;2022-07-21T15:29:51;3.43;;;3.23;;
10090;SDS011;5084;51.386;6.778;2022-07-21T15:32:17;4.50;;;3.30;;
10090;SDS011;5084;51.386;6.778;2022-07-21T15:34:43;3.43;;;3.13;;
10090;SDS011;5084;51.386;6.778;2022-07-21T15:37:10;3.17;;;2.87;;